createdAt,value
2018-09-26T00:04:31.790Z,16.2
2018-09-26T00:14:31.013Z,16.2
2018-09-26T00:24:30.238Z,16.1
2018-09-26T00:34:29.465Z,16
2018-09-26T00:44:28.692Z,16.3
2018-09-26T00:54:27.910Z,16.4
2018-09-26T01:04:27.134Z,16.4
2018-09-26T01:14:26.364Z,16.3
2018-09-26T01:24:25.581Z,16
2018-09-26T01:34:24.811Z,15.9
2018-09-26T01:44:24.034Z,15.7
2018-09-26T01:54:23.253Z,15.6
2018-09-26T02:04:22.476Z,15.5
2018-09-26T02:14:21.704Z,15.5
2018-09-26T02:24:20.935Z,15.4
2018-09-26T02:34:20.151Z,15.3
2018-09-26T02:44:19.380Z,15.4
2018-09-26T02:54:18.597Z,15.6
2018-09-26T03:04:17.816Z,15.8
2018-09-26T03:14:17.043Z,16.2
2018-09-26T03:24:16.268Z,16.6
2018-09-26T03:34:15.491Z,17.1
2018-09-26T03:44:14.711Z,17.3
2018-09-26T03:54:13.945Z,17.3
2018-09-26T04:04:13.157Z,16.5
2018-09-26T04:14:12.388Z,16.1
2018-09-26T04:24:11.608Z,15.9
2018-09-26T04:34:10.838Z,15.9
2018-09-26T04:44:10.056Z,15.9
2018-09-26T04:54:09.284Z,15.9
2018-09-26T05:04:08.502Z,15.9
2018-09-26T05:14:07.732Z,15.9
2018-09-26T05:24:06.953Z,16.2
2018-09-26T05:34:06.182Z,16.4
2018-09-26T05:44:05.401Z,16.4
2018-09-26T05:54:04.618Z,16.6
2018-09-26T06:04:03.847Z,16.8
2018-09-26T06:14:03.068Z,16.9
2018-09-26T06:24:02.285Z,16.8
2018-09-26T06:34:01.514Z,16.9
2018-09-26T06:44:00.735Z,17.4
2018-09-26T06:54:00.032Z,17.7
2018-09-26T07:03:59.175Z,18.3
2018-09-26T07:13:58.397Z,18.3
2018-09-26T07:23:57.687Z,18.1
2018-09-26T07:33:56.849Z,17.7
2018-09-26T07:43:56.073Z,17.4
2018-09-26T07:53:55.289Z,17.5
2018-09-26T08:03:54.514Z,17.6
2018-09-26T08:13:53.733Z,17.3
2018-09-26T08:23:53.000Z,17.5
2018-09-26T08:33:52.185Z,17.5
2018-09-26T08:43:51.476Z,17.8
2018-09-26T08:53:50.773Z,18.1
2018-09-26T09:03:49.837Z,18.1
2018-09-26T09:13:49.064Z,18.4
2018-09-26T09:23:48.331Z,18.4
2018-09-26T09:33:47.501Z,18
2018-09-26T09:43:46.731Z,18.5
2018-09-26T09:53:45.945Z,18.4
2018-09-26T10:03:45.191Z,19
2018-09-26T10:13:44.393Z,19.4
2018-09-26T10:23:43.609Z,19.8
2018-09-26T10:33:42.849Z,19.3
2018-09-26T10:43:42.057Z,18.8
2018-09-26T10:53:41.281Z,18.6
2018-09-26T11:03:40.494Z,18.3
2018-09-26T11:13:39.716Z,18.3
2018-09-26T11:23:38.936Z,18.6
2018-09-26T11:33:38.176Z,19.2
2018-09-26T11:43:37.384Z,19.4
2018-09-26T11:53:36.606Z,19.5
2018-09-26T12:03:35.825Z,19.8
2018-09-26T12:13:35.044Z,20.1
2018-09-26T12:23:34.266Z,19.6
2018-09-26T12:33:33.487Z,19.6
2018-09-26T12:43:32.704Z,19.6
2018-09-26T12:53:31.950Z,20
2018-09-26T13:03:31.146Z,19.2
2018-09-26T13:13:30.367Z,19.1
2018-09-26T13:23:29.598Z,19.1
2018-09-26T13:33:28.809Z,19.1
2018-09-26T13:43:28.079Z,19.1
2018-09-26T13:53:27.249Z,19.4
2018-09-26T14:03:26.466Z,20
2018-09-26T14:13:25.681Z,19.6
2018-09-26T14:23:24.912Z,19.3
2018-09-26T14:33:24.180Z,18.9
2018-09-26T14:43:23.344Z,19
2018-09-26T14:53:22.578Z,18.3
2018-09-26T15:03:21.782Z,17.7
2018-09-26T15:13:21.002Z,18.1
2018-09-26T15:23:20.219Z,18.6
2018-09-26T15:33:19.442Z,19.4
2018-09-26T15:43:18.662Z,19.6
2018-09-26T15:53:17.878Z,19.6
2018-09-26T16:03:17.098Z,19.8
2018-09-26T16:13:16.318Z,19.9
2018-09-26T16:23:15.543Z,19.5
2018-09-26T16:33:14.758Z,19.4
2018-09-26T16:43:13.977Z,19.4
2018-09-26T16:53:13.204Z,18.8
2018-09-26T17:03:12.418Z,18.6
2018-09-26T17:13:11.641Z,18.4
2018-09-26T17:23:10.864Z,18.1
2018-09-26T17:33:10.104Z,18.1
2018-09-26T17:43:09.332Z,18.2
2018-09-26T17:53:08.535Z,17.6
2018-09-26T18:03:07.749Z,17.5
2018-09-26T18:13:07.023Z,17.9
2018-09-26T18:23:06.205Z,18.2
2018-09-26T18:33:05.433Z,18.3
2018-09-26T18:43:04.632Z,18.4
2018-09-26T18:53:03.868Z,18.3
2018-09-26T19:13:02.306Z,18.2
2018-09-26T19:23:01.519Z,18.1
2018-09-26T19:33:00.813Z,18.2
2018-09-26T19:42:59.962Z,18.1
2018-09-26T19:52:59.179Z,17.2
2018-09-26T20:02:58.414Z,16
2018-09-26T20:12:57.693Z,15.6
2018-09-26T20:22:56.865Z,15.4
2018-09-26T20:32:56.119Z,15.6
2018-09-26T20:42:55.295Z,16.1
2018-09-26T20:52:54.508Z,15.9
2018-09-26T21:02:53.732Z,15.3
2018-09-26T21:12:52.955Z,15.1
2018-09-26T21:22:52.170Z,14.9
2018-09-26T21:32:51.383Z,14.8
2018-09-26T21:42:50.607Z,14.7
2018-09-26T21:52:49.831Z,14.6
2018-09-26T22:02:49.040Z,14.4
2018-09-26T22:12:48.259Z,14.4
2018-09-26T22:22:47.481Z,14.4
2018-09-26T22:32:46.748Z,14.4
2018-09-26T22:42:45.967Z,14.4
2018-09-26T22:52:45.164Z,14.3
2018-09-26T23:02:44.359Z,14.1
2018-09-26T23:12:43.578Z,14
2018-09-26T23:22:42.801Z,13.8
2018-09-26T23:32:42.019Z,13.8
2018-09-26T23:42:41.234Z,13.7
2018-09-26T23:52:40.449Z,13.6
